Time;durP1;ratioP1;P1;durP2;ratioP2;P2;SDS_P1;SDS_P2;PMS_P1;PMS_P2;Temp;Humidity;BMP_temperature;BMP_pressure;BME280_temperature;BME280_humidity;BME280_pressure;Samples;Min_cycle;Max_cycle;Signal;HPM_P1;HPM_P2
2021/07/28 00:00:48;;;;;;;;;3.00;3.00;;;;;16.82;83.75;100039.25;4976872;28;45271;-87
2021/07/28 00:03:14;;;;;;;;;3.25;3.00;;;;;16.79;83.33;100044.91;4976789;28;47060;-86
2021/07/28 00:05:39;;;;;;;;;3.50;2.75;;;;;16.73;83.55;100040.06;4994515;28;45312;-88
2021/07/28 00:08:05;;;;;;;;;3.25;2.75;;;;;16.80;83.42;100048.44;5013701;28;45317;-87
2021/07/28 00:10:30;;;;;;;;;4.50;4.50;;;;;16.78;83.25;100056.63;5015170;28;45240;-87
2021/07/28 00:12:56;;;;;;;;;3.00;3.00;;;;;16.71;83.92;100048.28;4997194;28;46993;-86
2021/07/28 00:15:21;;;;;;;;;2.50;2.50;;;;;16.62;83.70;100033.00;4997208;28;45550;-86
2021/07/28 00:17:50;;;;;;;;;4.25;3.50;;;;;16.57;83.97;100021.81;4997157;28;45329;-87
2021/07/28 00:23:14;;;;;;;;;4.25;2.75;;;;;16.53;83.15;100028.44;4954040;28;45943;-86
2021/07/28 00:25:43;;;;;;;;;3.00;3.00;;;;;16.52;83.44;100032.13;4953735;28;45591;-86
2021/07/28 00:28:09;;;;;;;;;2.75;2.75;;;;;16.57;83.43;100048.66;4954000;28;45266;-86
2021/07/28 00:30:35;;;;;;;;;1.75;1.75;;;;;16.43;83.73;100019.50;4954115;28;45083;-87
2021/07/28 00:33:00;;;;;;;;;2.75;2.75;;;;;16.36;83.68;100012.00;4953965;28;46584;-87
2021/07/28 00:35:26;;;;;;;;;3.00;2.75;;;;;16.41;83.74;100021.50;4953589;28;45241;-87
2021/07/28 00:37:51;;;;;;;;;4.25;3.00;;;;;16.27;84.15;100004.75;4953643;28;45697;-87
2021/07/28 00:40:17;;;;;;;;;4.25;3.50;;;;;16.46;83.61;100032.66;4954066;28;45312;-86
2021/07/28 00:42:42;;;;;;;;;4.50;3.50;;;;;16.37;84.13;100024.44;4953851;28;45683;-85
2021/07/28 00:45:09;;;;;;;;;3.50;3.25;;;;;16.30;83.97;100011.69;4913562;28;1191179;-87
2021/07/28 00:47:34;;;;;;;;;3.25;2.75;;;;;16.41;83.78;100033.06;4939086;28;45285;-86
2021/07/28 00:50:01;;;;;;;;;3.00;2.50;;;;;16.37;84.05;100028.94;4955248;28;45279;-86
2021/07/28 00:52:29;;;;;;;;;4.25;3.00;;;;;16.28;84.11;100022.56;4954989;28;46249;-87
2021/07/28 00:54:54;;;;;;;;;2.25;2.00;;;;;16.19;84.22;100005.44;4938640;28;45794;-87
2021/07/28 00:57:20;;;;;;;;;4.00;3.00;;;;;16.36;84.17;100038.84;4938962;28;45198;-86
2021/07/28 00:59:46;;;;;;;;;3.25;3.00;;;;;16.30;84.06;100025.13;4972851;28;45336;-87
2021/07/28 01:02:11;;;;;;;;;3.00;2.75;;;;;16.15;84.09;100003.19;4997954;28;47531;-86
2021/07/28 01:04:37;;;;;;;;;1.50;1.50;;;;;16.26;84.56;100023.69;5015988;28;45380;-87
2021/07/28 01:07:15;;;;;;;;;2.75;2.75;;;;;16.19;84.19;100012.66;5015833;28;45217;-86
2021/07/28 01:09:40;;;;;;;;;0.00;0.00;;;;;16.09;84.18;99993.84;5016081;28;45148;-87
2021/07/28 01:12:06;;;;;;;;;1.00;1.00;;;;;16.25;84.14;100024.66;4998037;28;47143;-87
2021/07/28 01:14:31;;;;;;;;;4.50;3.00;;;;;16.34;84.30;100046.16;5018518;28;45238;-86
2021/07/28 01:16:58;;;;;;;;;3.00;3.00;;;;;16.24;84.02;100023.81;5001609;28;45173;-86
2021/07/28 01:19:29;;;;;;;;;2.75;2.75;;;;;16.28;83.85;100035.13;5019533;28;45173;-86
2021/07/28 01:21:57;;;;;;;;;4.00;4.00;;;;;16.15;84.31;100019.28;5001240;28;47456;-86
2021/07/28 01:24:22;;;;;;;;;3.75;3.75;;;;;16.24;84.10;100026.50;5019322;28;45574;-86
2021/07/28 01:26:48;;;;;;;;;3.50;3.50;;;;;16.16;84.04;100016.47;5019165;28;45154;-87
2021/07/28 01:29:15;;;;;;;;;3.50;3.50;;;;;16.08;83.87;100010.91;5001198;28;45291;-86
2021/07/28 01:31:43;;;;;;;;;4.00;2.75;;;;;16.22;84.22;100028.47;5001142;28;47573;-86
2021/07/28 01:34:11;;;;;;;;;3.50;3.25;;;;;16.29;83.77;100043.06;5001075;28;45268;-86
2021/07/28 01:36:40;;;;;;;;;2.50;2.50;;;;;16.28;83.93;100043.19;5001266;28;45074;-86
2021/07/28 01:39:05;;;;;;;;;1.75;1.75;;;;;16.05;84.10;100003.97;5001242;28;45275;-86
2021/07/28 01:41:32;;;;;;;;;4.00;4.00;;;;;16.29;84.17;100043.06;5001007;28;47056;-86
2021/07/28 01:43:58;;;;;;;;;2.00;2.00;;;;;16.20;84.13;100033.09;5000183;28;45529;-86
2021/07/28 01:46:23;;;;;;;;;2.25;2.25;;;;;16.03;84.06;100003.28;5019038;28;45317;-86
2021/07/28 01:48:49;;;;;;;;;3.00;2.50;;;;;16.19;83.47;100032.28;5018993;28;45272;-86
2021/07/28 01:51:14;;;;;;;;;3.50;2.50;;;;;16.16;84.04;100024.50;5000781;28;47845;-86
2021/07/28 01:53:43;;;;;;;;;5.00;3.25;;;;;16.09;84.16;100015.28;5018784;28;45249;-86
2021/07/28 01:56:10;;;;;;;;;2.75;2.75;;;;;16.04;84.23;100009.47;5018285;28;45141;-87
2021/07/28 01:58:39;;;;;;;;;3.00;3.00;;;;;16.08;84.04;100012.75;5001155;28;45141;-86
2021/07/28 02:01:05;;;;;;;;;3.25;3.00;;;;;16.09;84.00;100017.09;5000682;28;47211;-86
2021/07/28 02:03:30;;;;;;;;;2.25;2.25;;;;;16.18;83.65;100041.28;4984191;28;45229;-87
2021/07/28 02:05:55;;;;;;;;;2.50;1.25;;;;;16.00;83.91;100010.72;5018621;28;45208;-86
2021/07/28 02:08:21;;;;;;;;;5.75;3.00;;;;;16.12;83.59;100033.78;5000789;28;45232;-86
2021/07/28 02:10:49;;;;;;;;;1.75;1.75;;;;;16.21;83.70;100038.34;5000399;28;47589;-87
2021/07/28 02:13:19;;;;;;;;;3.25;3.00;;;;;16.26;84.17;100043.31;5018678;28;45117;-87
2021/07/28 02:15:45;;;;;;;;;2.00;2.00;;;;;16.15;83.90;100030.84;5001494;28;45226;-87
2021/07/28 02:18:10;;;;;;;;;2.00;1.75;;;;;16.00;83.00;100016.94;5000388;28;45554;-87
2021/07/28 02:20:37;;;;;;;;;5.25;2.50;;;;;16.19;83.37;100052.91;5018343;28;45219;-87
2021/07/28 02:23:03;;;;;;;;;6.00;4.25;;;;;16.16;83.28;100048.63;5018262;28;45069;-86
2021/07/28 02:25:28;;;;;;;;;3.75;3.00;;;;;16.11;83.17;100040.13;5000358;28;45235;-86
2021/07/28 02:27:54;;;;;;;;;2.75;2.75;;;;;16.02;83.13;100033.75;5000458;28;45406;-85
2021/07/28 02:30:19;;;;;;;;;1.25;1.25;;;;;16.11;83.26;100045.50;5018112;28;45563;-87
2021/07/28 02:32:46;;;;;;;;;0.75;0.75;;;;;16.12;83.90;100052.56;5018429;28;45286;-87
2021/07/28 02:35:15;;;;;;;;;4.25;3.00;;;;;16.14;83.58;100055.13;5000298;28;45311;-86
2021/07/28 02:37:42;;;;;;;;;5.00;3.00;;;;;16.14;83.63;100050.59;5018254;28;45330;-86
2021/07/28 02:40:12;;;;;;;;;4.00;2.75;;;;;16.12;83.10;100051.69;5017904;28;45334;-86
2021/07/28 02:42:37;;;;;;;;;3.00;2.75;;;;;16.03;82.87;100046.16;5018235;28;45258;-87
2021/07/28 02:45:03;;;;;;;;;4.00;3.00;;;;;15.92;82.87;100032.84;5017626;28;45232;-87
2021/07/28 02:47:28;;;;;;;;;3.00;1.00;;;;;16.00;82.53;100046.44;5018234;28;45220;-86
2021/07/28 02:49:54;;;;;;;;;4.50;3.00;;;;;15.87;83.41;100030.53;4999698;28;47461;-87
2021/07/28 02:52:19;;;;;;;;;3.00;2.75;;;;;15.89;82.92;100027.75;4999931;28;45503;-85
2021/07/28 02:54:45;;;;;;;;;2.75;1.75;;;;;15.84;83.18;100033.47;5017801;28;45244;-86
2021/07/28 02:57:10;;;;;;;;;1.25;1.25;;;;;15.69;82.94;100010.63;5017800;28;45295;-86
2021/07/28 02:59:35;;;;;;;;;4.50;3.50;;;;;15.75;83.11;100030.69;5017684;28;46534;-87
2021/07/28 03:02:01;;;;;;;;;2.50;2.50;;;;;15.72;83.17;100037.19;5017802;28;45307;-87
2021/07/28 03:04:26;;;;;;;;;2.75;2.50;;;;;15.58;82.65;100016.94;4999626;28;45130;-87
2021/07/28 03:06:51;;;;;;;;;2.00;2.00;;;;;15.82;83.01;100058.75;4999290;28;45443;-87
2021/07/28 03:09:16;;;;;;;;;5.50;2.00;;;;;15.60;82.80;100024.84;5017297;28;46431;-86
2021/07/28 03:11:42;;;;;;;;;2.75;2.75;;;;;15.65;82.82;100052.09;5017461;28;45280;-86
2021/07/28 03:14:07;;;;;;;;;4.00;4.00;;;;;15.59;82.85;100045.44;4999520;28;45217;-85
2021/07/28 03:16:32;;;;;;;;;5.75;3.25;;;;;15.57;83.02;100036.66;5017696;28;45379;-86
2021/07/28 03:18:59;;;;;;;;;1.75;1.75;;;;;15.52;83.08;100031.69;5017178;28;46401;-86
2021/07/28 03:21:24;;;;;;;;;3.00;3.00;;;;;15.63;83.14;100062.09;5017508;28;45558;-86
2021/07/28 03:23:49;;;;;;;;;3.50;2.00;;;;;15.59;83.09;100057.97;4999304;28;45325;-86
2021/07/28 03:26:15;;;;;;;;;3.00;1.75;;;;;15.56;82.78;100058.22;4999486;28;45287;-87
2021/07/28 03:28:40;;;;;;;;;3.00;3.00;;;;;15.39;82.74;100033.72;4999021;28;48168;-87
2021/07/28 03:31:06;;;;;;;;;3.00;3.00;;;;;15.37;82.44;100032.97;5017040;28;45255;-86
2021/07/28 03:33:31;;;;;;;;;3.75;3.00;;;;;15.52;82.95;100058.50;5017441;28;45684;-87
2021/07/28 03:35:57;;;;;;;;;6.00;5.00;;;;;15.54;82.52;100067.22;5016367;28;45264;-86
2021/07/28 03:38:22;;;;;;;;;3.75;1.75;;;;;15.47;82.61;100059.84;4998953;28;47475;-87
2021/07/28 03:40:48;;;;;;;;;3.00;1.00;;;;;15.53;82.91;100070.91;4999085;28;46019;-87
2021/07/28 03:43:14;;;;;;;;;2.00;2.00;;;;;15.40;82.47;100051.47;4999047;28;45331;-87
2021/07/28 03:45:40;;;;;;;;;7.25;3.00;;;;;15.49;82.25;100068.59;4998886;28;45231;-86
2021/07/28 03:48:06;;;;;;;;;2.00;1.00;;;;;15.34;82.31;100058.19;4999049;28;48558;-86
2021/07/28 03:50:31;;;;;;;;;2.50;2.50;;;;;15.30;82.35;100064.78;5015367;28;45710;-87
2021/07/28 03:52:59;;;;;;;;;2.00;2.00;;;;;15.23;82.39;100057.41;4999174;28;45177;-86
2021/07/28 03:55:25;;;;;;;;;2.50;2.50;;;;;15.29;82.34;100068.47;4998843;28;45349;-86
2021/07/28 03:57:50;;;;;;;;;2.50;2.50;;;;;15.21;82.92;100062.88;4998830;28;47112;-86
2021/07/28 04:00:16;;;;;;;;;2.00;2.00;;;;;15.02;82.75;100037.63;4998705;28;45133;-87
2021/07/28 04:02:41;;;;;;;;;4.00;3.00;;;;;15.20;82.10;100069.19;4999051;28;45222;-86
2021/07/28 04:05:07;;;;;;;;;4.00;1.50;;;;;14.94;82.43;100042.75;5016633;28;45346;-86
2021/07/28 04:07:33;;;;;;;;;2.50;2.50;;;;;15.09;82.50;100062.06;4998608;28;47490;-86
2021/07/28 04:09:58;;;;;;;;;4.75;3.00;;;;;14.89;82.42;100031.56;4998524;28;45362;-86
2021/07/28 04:12:23;;;;;;;;;2.00;2.00;;;;;14.93;82.43;100057.09;5016960;28;45267;-86
2021/07/28 04:14:49;;;;;;;;;2.75;2.00;;;;;14.99;82.39;100069.13;4998753;28;45486;-86
2021/07/28 04:17:14;;;;;;;;;4.00;2.50;;;;;14.91;82.54;100066.25;4998285;28;45547;-86
2021/07/28 04:19:43;;;;;;;;;4.00;3.00;;;;;14.94;81.72;100079.38;4998475;28;45550;-88
2021/07/28 04:22:08;;;;;;;;;4.25;2.25;;;;;14.94;82.06;100084.75;4998703;28;45218;-86
2021/07/28 04:24:33;;;;;;;;;2.75;1.00;;;;;14.96;82.41;100090.81;5016452;28;45225;-86
2021/07/28 04:26:59;;;;;;;;;2.00;1.00;;;;;14.94;82.35;100090.94;4998280;28;47016;-87
2021/07/28 04:29:24;;;;;;;;;4.00;1.00;;;;;14.83;82.30;100078.41;5016426;28;45215;-87
2021/07/28 04:31:49;;;;;;;;;2.75;2.75;;;;;14.89;82.65;100084.25;5016779;28;45218;-87
2021/07/28 04:34:15;;;;;;;;;2.25;2.00;;;;;14.76;82.49;100069.16;5016184;28;45161;-87
2021/07/28 04:36:41;;;;;;;;;2.75;2.00;;;;;14.64;82.57;100044.25;5016291;28;45267;-86
2021/07/28 04:39:06;;;;;;;;;3.00;2.00;;;;;14.81;82.80;100077.69;4998055;28;46112;-87
2021/07/28 04:41:31;;;;;;;;;2.00;2.00;;;;;14.89;82.73;100087.75;4998434;28;45214;-88
2021/07/28 04:43:57;;;;;;;;;2.00;2.00;;;;;14.66;82.81;100050.34;5016158;28;45295;-87
2021/07/28 04:46:22;;;;;;;;;4.50;3.00;;;;;14.90;82.73;100084.13;4998228;28;47545;-86
2021/07/28 04:48:49;;;;;;;;;1.50;1.50;;;;;14.92;82.40;100084.88;4999574;28;45778;-86
2021/07/28 04:51:14;;;;;;;;;2.00;2.00;;;;;15.03;82.63;100092.00;5001832;28;45168;-87
2021/07/28 04:53:40;;;;;;;;;5.00;2.00;;;;;14.94;82.43;100084.75;5001872;28;45237;-87
2021/07/28 04:56:05;;;;;;;;;4.00;3.00;;;;;14.96;82.49;100082.78;5019140;28;45135;-86
2021/07/28 04:58:30;;;;;;;;;3.75;3.00;;;;;14.78;82.99;100045.00;5019317;28;45244;-87
2021/07/28 05:00:56;;;;;;;;;1.25;1.25;;;;;14.86;82.36;100060.41;5001671;28;45109;-87
2021/07/28 05:03:22;;;;;;;;;7.50;2.50;;;;;15.05;82.05;100079.34;5001844;28;45103;-86
2021/07/28 05:05:47;;;;;;;;;1.00;1.00;;;;;15.11;82.46;100091.41;5000922;28;47879;-86
2021/07/28 05:08:13;;;;;;;;;2.25;1.00;;;;;15.01;81.89;100089.47;5001531;28;45142;-86
2021/07/28 05:10:38;;;;;;;;;3.75;2.50;;;;;15.05;81.67;100097.22;5001417;28;45277;-87
2021/07/28 05:13:04;;;;;;;;;4.00;4.00;;;;;15.04;81.79;100100.91;5001614;28;45074;-87
2021/07/28 05:15:30;;;;;;;;;3.25;2.00;;;;;14.88;81.74;100080.72;5001276;28;48237;-88
2021/07/28 05:17:55;;;;;;;;;3.25;2.75;;;;;14.85;81.67;100089.00;5001212;28;45251;-86
2021/07/28 05:20:21;;;;;;;;;5.25;2.00;;;;;14.80;81.99;100073.31;5001514;28;45272;-87
2021/07/28 05:22:46;;;;;;;;;3.25;3.00;;;;;14.84;82.38;100082.78;5001282;28;45344;-86
2021/07/28 05:25:12;;;;;;;;;1.75;1.75;;;;;15.07;82.44;100109.53;5018856;28;45260;-87
2021/07/28 05:27:38;;;;;;;;;5.50;3.25;;;;;15.13;82.57;100111.69;5001547;28;45476;-87
2021/07/28 05:30:04;;;;;;;;;2.00;2.00;;;;;15.09;82.22;100096.00;5019021;28;45328;-86
2021/07/28 05:32:30;;;;;;;;;1.50;1.50;;;;;15.20;82.43;100106.69;5001624;28;45299;-87
2021/07/28 05:34:55;;;;;;;;;2.25;1.50;;;;;15.16;82.28;100105.25;5000735;28;46517;-86
2021/07/28 05:37:21;;;;;;;;;2.75;2.00;;;;;15.10;82.46;100087.00;5019075;28;45239;-86
2021/07/28 05:39:47;;;;;;;;;2.25;1.25;;;;;15.25;81.72;100104.50;5019156;28;45249;-86
2021/07/28 05:42:12;;;;;;;;;2.50;2.25;;;;;15.18;81.73;100112.19;5019236;28;45238;-87
2021/07/28 05:44:38;;;;;;;;;4.75;3.00;;;;;15.21;81.79;100112.91;5018634;28;46537;-86
2021/07/28 05:47:03;;;;;;;;;4.25;3.00;;;;;15.09;81.87;100094.19;5000740;28;45145;-86
2021/07/28 05:49:29;;;;;;;;;3.75;3.50;;;;;15.18;81.68;100114.84;5018833;28;45459;-87
2021/07/28 05:51:55;;;;;;;;;3.00;2.00;;;;;15.19;81.79;100105.84;5001058;28;45423;-86
2021/07/28 05:54:20;;;;;;;;;4.00;3.00;;;;;15.18;82.19;100098.78;5000570;28;47200;-86
2021/07/28 05:56:45;;;;;;;;;4.00;2.00;;;;;15.29;82.44;100107.75;5000850;28;46043;-86
2021/07/28 05:59:11;;;;;;;;;4.00;2.75;;;;;15.18;81.51;100079.19;5000368;28;45166;-87
2021/07/28 06:01:36;;;;;;;;;2.25;2.25;;;;;15.37;82.28;100097.28;5018965;28;45279;-86
2021/07/28 06:04:01;;;;;;;;;3.00;2.00;;;;;15.36;81.91;100076.81;5018412;28;45211;-87
2021/07/28 06:06:27;;;;;;;;;4.00;2.00;;;;;15.58;81.93;100110.72;5018374;28;45192;-86
2021/07/28 06:08:55;;;;;;;;;3.25;3.00;;;;;15.73;81.82;100124.66;5000598;28;45245;-86
2021/07/28 06:11:22;;;;;;;;;3.50;3.25;;;;;15.82;82.13;100133.81;5018741;28;45223;-86
2021/07/28 06:13:47;;;;;;;;;3.75;2.75;;;;;15.86;81.43;100133.41;5018436;28;46390;-86
2021/07/28 06:16:13;;;;;;;;;1.75;1.75;;;;;15.95;81.44;100138.97;5000578;28;45277;-86
2021/07/28 06:18:38;;;;;;;;;3.00;2.00;;;;;15.96;81.69;100130.81;5018753;28;45230;-86
2021/07/28 06:21:03;;;;;;;;;3.25;3.00;;;;;15.87;80.42;100107.44;5000438;28;45385;-86
2021/07/28 06:23:29;;;;;;;;;2.00;2.00;;;;;16.09;80.58;100143.16;5018494;28;45385;-87
2021/07/28 06:25:55;;;;;;;;;4.75;3.75;;;;;16.05;81.06;100123.81;5017734;28;45196;-86
2021/07/28 06:28:20;;;;;;;;;2.50;1.50;;;;;16.11;80.43;100128.63;5000196;28;45131;-86
2021/07/28 06:30:45;;;;;;;;;5.00;4.00;;;;;16.18;80.54;100126.28;5018170;28;45188;-86
2021/07/28 06:33:10;;;;;;;;;2.00;2.00;;;;;16.33;80.94;100135.69;5018219;28;45277;-87
2021/07/28 06:35:36;;;;;;;;;1.50;1.50;;;;;16.22;79.41;100112.47;4999921;28;45248;-86
2021/07/28 06:38:02;;;;;;;;;2.50;2.50;;;;;16.24;80.32;100117.69;5000214;28;45221;-86
2021/07/28 06:40:28;;;;;;;;;4.00;3.00;;;;;16.38;79.60;100128.09;5000192;28;45301;-86
2021/07/28 06:42:53;;;;;;;;;2.50;1.00;;;;;16.44;79.73;100137.44;5017854;28;46297;-86
2021/07/28 06:45:19;;;;;;;;;3.00;2.25;;;;;16.50;80.04;100149.47;5017472;28;45381;-86
2021/07/28 06:47:44;;;;;;;;;1.75;1.75;;;;;16.28;80.04;100099.53;5000073;28;45268;-86
2021/07/28 06:50:10;;;;;;;;;3.75;2.00;;;;;16.62;79.81;100153.78;5017650;28;45184;-86
2021/07/28 06:52:35;;;;;;;;;5.25;3.00;;;;;16.47;80.02;100107.66;5017902;28;46787;-86
2021/07/28 06:55:00;;;;;;;;;5.75;2.00;;;;;16.74;80.40;100139.28;5017567;28;45341;-86
2021/07/28 06:57:26;;;;;;;;;4.75;2.75;;;;;16.73;80.15;100120.59;4999838;28;45196;-87
2021/07/28 06:59:52;;;;;;;;;3.00;2.00;;;;;16.95;78.54;100134.88;5017710;28;45113;-86
2021/07/28 07:02:18;;;;;;;;;4.75;4.00;;;;;17.03;78.00;100132.34;4999654;28;47027;-87
2021/07/28 07:04:43;;;;;;;;;2.00;2.00;;;;;16.99;78.26;100118.34;4999360;28;45690;-88
2021/07/28 07:07:08;;;;;;;;;3.75;2.00;;;;;17.23;79.59;100144.00;4999570;28;45170;-88
2021/07/28 07:09:34;;;;;;;;;2.00;2.00;;;;;17.48;79.53;100158.72;4999635;28;45220;-87
2021/07/28 07:11:59;;;;;;;;;1.25;1.25;;;;;17.64;78.60;100150.13;4998587;28;48021;-86
2021/07/28 07:14:24;;;;;;;;;2.25;2.25;;;;;17.72;78.51;100119.84;4999458;28;45240;-87
2021/07/28 07:16:49;;;;;;;;;3.75;2.00;;;;;18.18;77.59;100161.31;4999582;28;45369;-87
2021/07/28 07:19:15;;;;;;;;;1.50;1.00;;;;;18.33;77.62;100156.34;5017405;28;45054;-86
2021/07/28 07:21:40;;;;;;;;;5.00;2.00;;;;;18.45;75.52;100144.41;4999228;28;47906;-86
2021/07/28 07:24:05;;;;;;;;;1.50;1.00;;;;;18.46;73.54;100153.34;4999377;28;45145;-85
2021/07/28 07:26:31;;;;;;;;;2.00;2.00;;;;;18.45;72.86;100148.94;4999150;28;45477;-86
2021/07/28 07:28:56;;;;;;;;;1.00;1.00;;;;;18.50;73.41;100165.50;4999488;28;45319;-87
2021/07/28 07:31:21;;;;;;;;;3.00;2.00;;;;;18.44;74.21;100141.84;4999247;28;48085;-86
2021/07/28 07:33:47;;;;;;;;;2.75;2.25;;;;;18.57;72.65;100149.59;5017099;28;45221;-87
2021/07/28 07:36:22;;;;;;;;;2.00;1.50;;;;;18.67;73.06;100155.81;4999345;28;45663;-86
2021/07/28 07:38:48;;;;;;;;;1.00;1.00;;;;;18.68;74.41;100156.66;4999250;28;45351;-86
2021/07/28 07:41:14;;;;;;;;;2.00;1.50;;;;;18.62;72.75;100160.78;5017169;28;45686;-86
2021/07/28 07:43:39;;;;;;;;;1.00;1.00;;;;;18.53;72.32;100156.28;5017074;28;45134;-86
2021/07/28 07:46:05;;;;;;;;;2.00;2.00;;;;;18.51;71.87;100160.97;5016758;28;45349;-87
2021/07/28 07:48:31;;;;;;;;;1.00;1.00;;;;;18.45;72.46;100159.69;4999106;28;45300;-86
2021/07/28 07:50:56;;;;;;;;;5.75;2.00;;;;;18.30;71.78;100162.03;4998785;28;46333;-86
2021/07/28 07:53:21;;;;;;;;;4.00;1.00;;;;;18.19;72.05;100159.50;4998921;28;45170;-86
2021/07/28 07:55:47;;;;;;;;;1.00;1.00;;;;;18.15;71.56;100155.38;5016702;28;45273;-86
2021/07/28 07:58:12;;;;;;;;;3.50;1.00;;;;;18.16;72.45;100155.22;4998961;28;45225;-87
2021/07/28 08:00:37;;;;;;;;;1.75;1.75;;;;;18.40;72.39;100172.75;4998477;28;48003;-87
2021/07/28 08:03:03;;;;;;;;;2.50;2.00;;;;;18.59;71.28;100170.00;4998856;28;45198;-87
2021/07/28 08:05:28;;;;;;;;;4.00;2.00;;;;;18.67;71.69;100153.13;4998592;28;45192;-86
2021/07/28 08:07:54;;;;;;;;;1.00;1.00;;;;;18.97;68.76;100168.19;4998882;28;45178;-87
2021/07/28 08:10:19;;;;;;;;;2.25;1.00;;;;;19.10;70.41;100167.00;5016428;28;45205;-86
2021/07/28 08:12:45;;;;;;;;;2.00;2.00;;;;;19.26;68.68;100158.25;5016654;28;45200;-88
2021/07/28 08:15:10;;;;;;;;;2.25;2.25;;;;;19.48;70.24;100163.22;4998463;28;45204;-86
2021/07/28 08:17:36;;;;;;;;;2.00;1.00;;;;;19.86;70.78;100163.13;5016941;28;45109;-86
2021/07/28 08:20:02;;;;;;;;;2.00;1.50;;;;;20.12;69.62;100143.41;4998121;28;47358;-86
2021/07/28 08:22:28;;;;;;;;;1.00;1.00;;;;;20.52;69.67;100171.72;4998494;28;46116;-86
2021/07/28 08:24:53;;;;;;;;;3.50;1.00;;;;;20.86;68.98;100160.97;4998425;28;45197;-87
2021/07/28 08:27:19;;;;;;;;;1.00;1.00;;;;;21.18;67.00;100166.69;5016583;28;45231;-86
2021/07/28 08:29:44;;;;;;;;;1.00;1.00;;;;;21.29;66.49;100146.59;5016018;28;46396;-87
2021/07/28 08:32:09;;;;;;;;;2.00;2.00;;;;;21.51;66.17;100148.72;5016453;28;45264;-86
2021/07/28 08:34:35;;;;;;;;;4.00;1.25;;;;;21.74;64.87;100145.34;4998569;28;45243;-88
2021/07/28 08:37:00;;;;;;;;;2.00;1.25;;;;;21.88;64.91;100150.09;4998330;28;45392;-87
2021/07/28 08:39:26;;;;;;;;;1.75;1.75;;;;;21.89;63.19;100142.84;4998345;28;47282;-87
2021/07/28 08:41:53;;;;;;;;;0.00;0.00;;;;;22.19;62.70;100171.09;5016402;28;45183;-87
2021/07/28 08:44:21;;;;;;;;;2.25;2.00;;;;;22.30;60.23;100169.03;4998288;28;45216;-87
2021/07/28 08:46:49;;;;;;;;;1.00;1.00;;;;;22.30;60.09;100160.91;4998195;28;45339;-88
2021/07/28 08:49:14;;;;;;;;;1.00;1.00;;;;;22.13;61.04;100131.13;5016121;28;46133;-86
2021/07/28 08:51:43;;;;;;;;;1.25;1.25;;;;;22.47;62.13;100167.19;5016148;28;45195;-87
2021/07/28 08:54:08;;;;;;;;;1.00;1.00;;;;;22.41;60.65;100144.34;4998221;28;45135;-87
2021/07/28 08:56:38;;;;;;;;;2.50;1.00;;;;;22.47;58.91;100162.59;5016145;28;45094;-87
2021/07/28 08:59:04;;;;;;;;;0.50;0.50;;;;;22.33;59.10;100172.31;5016088;28;46509;-87
2021/07/28 09:01:29;;;;;;;;;1.75;1.75;;;;;22.00;56.94;100155.19;4997925;28;45177;-89
2021/07/28 09:03:55;;;;;;;;;2.50;1.25;;;;;21.88;58.22;100154.69;4997948;28;45193;-87
2021/07/28 09:06:30;;;;;;;;;1.00;1.00;;;;;21.88;59.65;100163.63;4998009;28;45379;-87
2021/07/28 09:09:00;;;;;;;;;2.00;2.00;;;;;21.91;58.69;100165.16;5015767;28;46481;-87
2021/07/28 09:11:26;;;;;;;;;1.25;1.25;;;;;22.04;60.18;100180.91;4998115;28;45437;-88
2021/07/28 09:13:55;;;;;;;;;1.00;1.00;;;;;22.09;60.20;100185.81;4997845;28;45274;-87
2021/07/28 09:16:21;;;;;;;;;1.00;1.00;;;;;22.05;59.99;100172.59;4998083;28;45266;-87
2021/07/28 09:18:51;;;;;;;;;3.25;2.00;;;;;22.15;59.89;100177.03;4997723;28;47934;-86
2021/07/28 09:21:19;;;;;;;;;1.50;1.00;;;;;22.32;58.03;100177.84;4997847;28;45408;-88
2021/07/28 09:23:46;;;;;;;;;1.50;1.25;;;;;22.46;59.41;100184.44;4998144;28;45200;-87
2021/07/28 09:26:30;;;;;;;;;3.00;1.00;;;;;22.68;58.70;100178.31;4997588;28;45315;-87
2021/07/28 09:29:06;;;;;;;;;1.50;1.00;;;;;22.84;57.25;100180.13;4997615;28;47357;-88
2021/07/28 09:31:34;;;;;;;;;2.25;2.25;;;;;22.83;58.63;100148.66;4997660;28;46110;-87
2021/07/28 09:34:10;;;;;;;;;1.25;1.25;;;;;23.26;58.78;100173.56;4998186;28;45224;-87
2021/07/28 09:36:36;;;;;;;;;2.00;2.00;;;;;23.59;55.80;100164.41;5001018;28;45277;-87
2021/07/28 09:39:03;;;;;;;;;1.00;1.00;;;;;23.85;55.72;100176.78;5000748;28;47831;-88
2021/07/28 09:41:29;;;;;;;;;1.75;1.75;;;;;23.79;56.22;100157.47;5001182;28;45982;-87
2021/07/28 09:43:59;;;;;;;;;2.00;2.00;;;;;24.01;52.25;100175.84;5018908;28;45384;-86
2021/07/28 09:46:31;;;;;;;;;2.75;2.75;;;;;23.99;55.29;100186.03;5000991;28;45107;-88
2021/07/28 09:48:58;;;;;;;;;2.50;2.00;;;;;23.79;54.91;100162.06;5000682;28;47218;-88
2021/07/28 09:51:34;;;;;;;;;1.75;1.75;;;;;23.93;54.85;100184.91;5018857;28;45516;-87
2021/07/28 09:54:03;;;;;;;;;4.00;2.75;;;;;24.00;55.99;100185.00;5018887;28;45220;-86
2021/07/28 09:56:36;;;;;;;;;2.00;1.00;;;;;24.15;55.19;100177.75;5018977;28;45216;-88
2021/07/28 09:59:03;;;;;;;;;3.50;1.75;;;;;24.11;52.96;100184.56;5000527;28;47684;-88
2021/07/28 10:01:31;;;;;;;;;2.00;1.00;;;;;23.85;55.72;100169.47;5000895;28;45227;-88
2021/07/28 10:03:58;;;;;;;;;3.00;1.25;;;;;23.76;56.18;100155.13;5018546;28;45145;-88
2021/07/28 10:06:26;;;;;;;;;2.25;1.50;;;;;24.11;54.67;100177.28;5000931;28;45129;-88
2021/07/28 10:08:54;;;;;;;;;3.00;1.00;;;;;24.35;55.12;100180.78;5000425;28;47340;-87
2021/07/28 10:11:24;;;;;;;;;3.00;1.50;;;;;24.41;55.19;100185.50;5000587;28;45260;-89
2021/07/28 10:13:52;;;;;;;;;2.50;2.50;;;;;24.30;54.95;100180.50;5000419;28;45253;-88
2021/07/28 10:16:18;;;;;;;;;1.75;1.75;;;;;24.32;54.83;100183.88;5000388;28;45470;-87
2021/07/28 10:18:45;;;;;;;;;2.00;2.00;;;;;24.33;50.35;100184.72;5000344;28;47086;-87
2021/07/28 10:21:11;;;;;;;;;1.75;1.00;;;;;23.93;53.08;100176.75;5000398;28;45671;-88
2021/07/28 10:23:37;;;;;;;;;2.00;2.00;;;;;23.66;54.45;100169.94;5018737;28;45136;-89
2021/07/28 10:26:04;;;;;;;;;3.00;1.75;;;;;23.42;52.90;100167.19;5018116;28;45256;-88
2021/07/28 10:28:29;;;;;;;;;1.00;1.00;;;;;23.17;55.41;100165.63;5000241;28;47450;-88
2021/07/28 10:31:12;;;;;;;;;3.00;2.00;;;;;23.09;54.47;100171.94;5017949;28;45111;-88
2021/07/28 10:33:55;;;;;;;;;1.00;1.00;;;;;23.02;53.92;100174.50;5000446;28;45047;-87
2021/07/28 10:36:45;;;;;;;;;4.00;2.00;;;;;23.13;54.90;100177.84;5000201;28;45427;-88
2021/07/28 10:39:11;;;;;;;;;0.50;0.50;;;;;23.25;53.74;100173.75;5017895;28;45460;-87
2021/07/28 10:41:41;;;;;;;;;1.75;1.75;;;;;23.27;53.93;100166.25;5000168;28;46001;-87
2021/07/28 10:44:09;;;;;;;;;1.00;1.00;;;;;23.09;53.48;100169.22;5018102;28;45375;-88
2021/07/28 10:46:52;;;;;;;;;1.25;1.25;;;;;23.05;54.07;100176.84;5016728;28;45230;-87
2021/07/28 10:49:33;;;;;;;;;1.00;1.00;;;;;23.07;52.40;100176.66;4999734;28;47588;-88
2021/07/28 10:51:58;;;;;;;;;1.00;1.00;;;;;23.06;54.16;100180.41;4999970;28;45577;-87
2021/07/28 10:54:49;;;;;;;;;1.00;1.00;;;;;23.05;53.16;100176.00;5000219;28;45224;-88
2021/07/28 10:57:38;;;;;;;;;1.75;1.75;;;;;22.93;51.26;100186.38;5000027;28;45039;-88
2021/07/28 11:00:06;;;;;;;;;2.00;1.00;;;;;22.70;53.32;100173.59;5017365;28;46358;-88
2021/07/28 11:02:58;;;;;;;;;2.00;1.00;;;;;22.72;53.78;100185.09;4999766;28;45242;-87
2021/07/28 11:05:28;;;;;;;;;2.00;1.00;;;;;22.65;54.68;100159.69;4921178;28;45341;-87
2021/07/28 11:08:05;;;;;;;;;0.75;0.75;;;;;22.90;54.20;100184.00;4921366;28;45187;-87
2021/07/28 11:10:45;;;;;;;;;1.00;1.00;;;;;23.23;54.20;100184.78;4920773;28;47508;-87
2021/07/28 11:13:14;;;;;;;;;1.25;1.25;;;;;23.57;53.13;100177.28;4921018;28;45406;-86
2021/07/28 11:15:49;;;;;;;;;1.00;1.00;;;;;23.69;52.08;100181.28;4920958;28;45184;-87
2021/07/28 11:18:15;;;;;;;;;2.75;2.00;;;;;23.73;52.04;100184.50;4921010;28;45472;-87
2021/07/28 11:20:41;;;;;;;;;1.25;1.25;;;;;23.65;48.20;100188.09;4920776;28;47167;-87
2021/07/28 11:23:25;;;;;;;;;4.00;3.00;;;;;23.40;49.78;100196.38;4937052;28;45182;-87
2021/07/28 11:25:51;;;;;;;;;2.00;1.75;;;;;23.10;51.22;100184.44;4920552;28;45246;-88